02:02 Bike Tschirgantrunde klassisch
Ort Moetz Datum 24.07.2010 17:09:43
Kategorie Walze
Distanz 48,27 Kilometer Steigung 526,2 Meter Gefälle -562,1 Meter
Gesamt Zeit 02:02:04 Aktiv 02:02:04 Pause 00:00:00
Durchs. Tempo 23,7 km/h Tempo max. 38,7 km/h Tempo min. 7,1 km/h
Kalorien 0 Durchs. HF 144 BPM HF max. 169 BPM
Wetter 15 °C ChanceRain
Ausrüstung Schwalbe - Racing Ralph hinten
Schwalbe - Racing Ralph vorne
Specialized - BG S-Works MTB
Shimano - HG-93 XT
Specialized - Stumpjumper Comp
SwissStop - Disc17 Avid Juicy
Notiz Tschirgantrunde "klassisch" ... Regen, Matsch, bis Gurgltatl leichter Gegenwind - super! locker ... garmin connect
Splits
Distanz (km) Gesamt Zeit Split Zeit Split Tempo Split Tempo Höhenprofil (m)
1,00 00:02:16 00:02:16 00:02:16 26,5 -2,74
2,00 00:04:25 00:02:09 00:02:09 27,9 4,44
3,00 00:06:36 00:02:11 00:02:11 27,5 4,77
4,00 00:08:40 00:02:04 00:02:04 29,0 1,59
5,00 00:10:46 00:02:06 00:02:06 28,6 -1,45
6,00 00:12:49 00:02:03 00:02:03 29,3 3,40
7,00 00:15:03 00:02:14 00:02:14 26,9 17,63
8,00 00:18:16 00:03:13 00:03:13 18,7 42,26
9,00 00:20:35 00:02:19 00:02:19 25,9 -7,97
10,00 00:22:26 00:01:51 00:01:51 32,4 -19,44
11,00 00:24:20 00:01:54 00:01:54 31,6 -16,16
12,00 00:27:01 00:02:41 00:02:41 22,4 27,74
13,00 00:29:22 00:02:21 00:02:21 25,5 -11,70
14,00 00:32:20 00:02:58 00:02:58 20,2 18,98
15,00 00:34:25 00:02:05 00:02:05 28,8 -9,33
16,00 00:36:46 00:02:21 00:02:21 25,5 8,79
17,00 00:39:09 00:02:23 00:02:23 25,2 1,08
18,00 00:41:21 00:02:12 00:02:12 27,3 -1,20
19,00 00:44:04 00:02:43 00:02:43 22,1 -1,59
20,00 00:46:05 00:02:01 00:02:01 29,8 -1,84
21,00 00:48:10 00:02:05 00:02:05 28,8 9,79
22,00 00:50:24 00:02:14 00:02:14 26,9 10,44
23,00 00:52:59 00:02:35 00:02:35 23,2 17,29
24,00 00:55:11 00:02:12 00:02:12 27,3 5,25
25,00 00:57:38 00:02:27 00:02:27 24,5 18,07
26,00 01:00:21 00:02:43 00:02:43 22,1 8,97
27,00 01:03:05 00:02:44 00:02:44 22,0 22,91
28,00 01:05:32 00:02:27 00:02:27 24,5 0,87
29,00 01:08:17 00:02:45 00:02:45 21,8 21,84
30,00 01:10:27 00:02:10 00:02:10 27,7 -4,62
31,00 01:13:01 00:02:34 00:02:34 23,4 16,75
32,00 01:15:14 00:02:13 00:02:13 27,1 -22,22
33,00 01:17:36 00:02:22 00:02:22 25,4 2,70
34,00 01:19:39 00:02:03 00:02:03 29,3 -1,20
35,00 01:22:43 00:03:04 00:03:04 19,6 26,30
36,00 01:25:28 00:02:45 00:02:45 21,8 28,84
37,00 01:29:01 00:03:33 00:03:33 16,9 45,56
38,00 01:33:15 00:04:14 00:04:14 14,2 64,15
39,00 01:39:16 00:06:01 00:06:01 10,0 85,83
40,00 01:43:32 00:04:16 00:04:16 14,1 49,29
41,00 01:47:06 00:03:34 00:03:34 16,8 -4,95
42,00 01:49:03 00:01:57 00:01:57 30,8 -36,66
43,00 01:51:16 00:02:13 00:02:13 27,1 -46,77
44,00 01:53:26 00:02:10 00:02:10 27,7 -25,30
45,00 01:55:37 00:02:11 00:02:11 27,5 -22,18
46,00 01:57:46 00:02:09 00:02:09 27,9 -90,14
47,00 01:59:36 00:01:50 00:01:50 32,7 -93,02
48,00 02:01:31 00:01:55 00:01:55 31,3 -118,29